Date,TemperatureHighF,TemperatureAvgF,TemperatureLowF,DewpointHighF,DewpointAvgF,DewpointLowF,HumidityHigh,HumidityAvg,HumidityLow,PressureMaxIn,PressureMinIn,WindSpeedMaxMPH,WindSpeedAvgMPH,GustSpeedMaxMPH,PrecipitationSumIn
2012-1-1,43,35,28,40,30,23,93,82,67,30.11,29.55,35,18,38,0.03
2012-1-2,29,22,17,24,14,9,89,72,59,30.42,30.08,27,14,34,0.00
2012-1-3,26,19,10,17,11,6,87,72,50,30.49,30.12,20,7,21,0.00
2012-1-4,41,31,24,29,24,17,87,75,57,30.12,29.95,16,7,0,0.00
2012-1-5,49,35,24,36,29,20,90,79,59,30.09,29.77,19,7,0,0.00
2012-1-6,54,41,33,39,34,30,89,75,54,29.80,29.69,16,6,0,0.00
2012-1-7,43,34,26,33,29,24,94,81,64,30.27,29.80,13,5,0,0.00
2012-1-8,40,31,22,32,27,20,96,86,69,30.40,30.26,9,1,0,0.00
2012-1-9,45,34,24,32,28,22,94,79,54,30.31,30.02,21,8,26,0.00
2012-1-10,51,36,26,37,30,24,94,80,55,30.12,29.83,13,4,0,0.00
2012-1-11,50,37,28,38,31,25,96,82,56,29.83,29.50,8,2,0,0.00
2012-1-12,33,25,16,31,23,14,96,94,91,29.61,29.42,25,11,27,0.01
2012-1-13,20,16,13,16,13,10,91,87,83,30.12,29.60,23,13,26,0.00
2012-1-14,17,13,2,12,9,-1,91,85,77,30.33,30.11,13,4,0,0.00
2012-1-15,28,19,3,22,15,0,92,83,73,30.45,30.12,20,7,21,0.00
2012-1-16,50,38,24,49,35,20,96,88,80,30.12,29.69,23,9,26,0.00
2012-1-17,49,33,17,48,31,14,98,92,79,30.27,29.55,27,10,29,0.36
2012-1-18,25,19,10,21,14,7,87,82,73,30.35,29.94,22,7,22,0.00
2012-1-19,28,16,3,24,9,-3,94,75,57,30.25,29.86,21,9,24,0.00
2012-1-20,16,12,2,14,8,-3,92,83,65,30.30,30.10,18,6,21,0.00
2012-1-21,23,17,12,17,13,6,92,82,66,30.31,30.11,15,4,13,0.01
2012-1-22,43,29,13,43,28,10,99,95,85,30.17,29.50,21,11,25,0.63
2012-1-23,45,36,30,44,34,25,99,91,80,29.97,29.41,31,15,34,0.20
2012-1-24,35,30,25,29,26,23,95,84,76,30.39,29.97,24,8,26,0.00
2012-1-25,32,28,23,30,27,22,96,93,88,30.39,30.08,13,3,15,0.00
2012-1-26,35,33,31,34,32,29,98,96,95,30.09,29.65,10,4,0,0.15
2012-1-27,40,35,32,32,30,26,98,84,58,30.02,29.67,13,6,16,0.01
2012-1-28,32,28,24,32,24,20,98,85,72,30.18,29.86,21,12,25,0.00
2012-1-29,31,25,12,27,20,10,94,83,72,30.30,29.99,25,9,31,0.00
2012-1-30,49,36,15,41,31,13,94,82,72,30.28,29.89,22,10,25,0.00
2012-1-31,55,49,41,50,44,36,95,83,76,29.93,29.82,27,13,28,0.04
2012-2-1,46,38,32,43,35,31,97,92,84,30.19,29.92,10,3,0,0.00
2012-2-2,39,36,32,37,35,32,98,96,94,30.44,30.18,9,3,0,0.00
2012-2-3,41,36,34,39,35,33,99,95,91,30.49,30.35,16,7,19,0.02
2012-2-4,39,35,32,36,34,31,98,95,90,30.36,30.18,15,7,0,0.31
2012-2-5,42,33,27,37,31,26,97,91,76,30.31,30.20,13,3,0,0.00
2012-2-6,31,30,28,30,28,27,98,96,93,30.27,30.17,16,8,17,0.00
2012-2-7,35,30,28,32,29,26,97,93,85,30.39,30.22,15,6,20,0.00
2012-2-8,33,30,24,29,25,21,97,84,63,30.41,30.34,13,6,0,0.02
2012-2-9,33,27,20,26,23,18,92,84,72,30.36,30.14,16,8,17,0.00
2012-2-10,34,28,15,32,25,8,96,89,73,30.18,29.91,26,12,28,0.01
2012-2-11,19,14,9,10,6,3,76,69,58,30.43,30.17,24,12,28,0.00
2012-2-12,33,22,14,22,13,6,78,69,57,30.41,30.28,18,9,22,0.01
2012-2-13,35,25,14,26,18,10,94,76,49,30.28,29.92,19,6,21,0.00
2012-2-14,34,31,27,32,29,26,96,93,89,30.08,29.86,12,5,0,0.01
2012-2-15,40,35,30,37,34,28,98,93,87,30.15,29.99,15,6,0,0.09
2012-2-16,46,38,31,39,34,27,99,87,65,30.16,29.97,18,6,20,0.04
2012-2-17,47,36,25,36,30,23,93,81,61,30.21,30.04,21,7,21,0.00
2012-2-18,36,30,22,30,25,20,93,81,58,30.25,30.06,18,6,22,0.00
2012-2-19,36,27,21,24,21,18,92,79,55,30.26,30.17,15,4,14,0.00
2012-2-20,41,30,19,30,24,17,94,79,57,30.35,30.16,17,5,21,0.00
2012-2-24,29,28,26,27,22,20,90,80,75,29.99,29.90,28,18,34,0.00
2012-2-25,29,24,20,22,19,16,90,80,65,30.37,29.99,22,9,25,0.00
2012-2-26,47,29,20,33,24,17,89,80,57,30.37,30.06,19,7,23,0.00
2012-2-27,36,33,31,31,28,26,85,82,77,30.20,30.12,12,5,0,0.00
2012-2-28,41,40,40,37,36,34,91,83,77,30.03,29.82,22,10,27,0.30
2012-2-29,60,47,35,54,40,30,99,78,45,29.83,29.43,39,16,47,0.40
2012-3-1,38,35,31,34,32,28,95,88,80,29.88,29.66,24,8,28,0.00
2012-3-2,46,37,33,43,34,29,95,90,86,29.78,29.24,28,10,31,0.27
2012-3-3,33,31,29,30,26,23,90,82,72,29.86,29.63,29,14,35,0.00
2012-3-4,33,29,27,26,24,22,90,83,70,30.01,29.83,13,7,0,0.00
2012-3-5,36,29,21,27,22,17,89,77,59,30.42,30.01,16,6,16,0.00
2012-3-6,66,48,29,45,34,25,86,61,37,30.31,29.95,36,15,43,0.00
2012-3-7,66,58,51,52,43,32,72,57,45,30.05,29.82,40,21,43,0.00
2012-3-8,61,42,32,54,35,25,95,79,53,30.27,29.80,30,12,37,0.36
2012-3-9,39,33,26,28,18,8,79,57,29,30.58,30.24,20,8,22,0.00
2012-3-10,58,40,24,33,26,18,84,60,34,30.55,30.26,25,9,27,0.00
2012-3-11,67,50,33,43,34,27,80,57,25,30.32,30.06,18,7,21,0.00
2012-3-12,70,58,49,58,53,42,97,84,62,30.06,29.74,29,11,34,0.23
2012-3-13,70,54,40,50,41,31,98,69,24,30.12,29.92,8,3,0,0.00
2012-3-14,80,64,46,61,54,39,93,74,46,30.07,29.92,27,8,27,0.00
2012-3-15,81,68,59,64,61,57,95,80,52,30.02,29.92,18,7,19,0.02
2012-3-16,80,66,54,60,56,51,97,74,37,30.07,29.99,18,6,20,0.00
2012-3-17,79,65,51,61,56,50,98,74,42,30.11,29.97,17,5,20,0.00
2012-3-18,80,67,58,62,58,54,96,76,45,30.08,29.94,15,5,16,0.01
2012-3-19,77,68,60,67,61,57,92,79,64,30.03,29.90,13,5,15,0.05
2012-3-20,83,71,59,59,55,50,84,60,36,30.05,29.93,27,7,27,0.00
2012-3-21,85,71,62,60,56,52,81,60,34,30.10,29.99,20,5,22,0.00
2012-3-22,82,68,57,65,58,52,91,72,43,30.08,29.98,17,3,21,0.11
2012-3-23,64,60,52,62,58,50,97,92,78,30.01,29.77,23,4,25,0.90
2012-3-24,61,54,50,57,52,49,98,93,84,29.94,29.76,15,5,0,0.00
2012-3-25,66,55,47,58,51,43,98,88,73,30.14,29.93,18,7,20,0.00
2012-3-26,49,43,38,42,35,30,90,75,56,30.36,30.13,25,11,27,0.00
2012-3-27,69,52,36,52,36,22,82,55,41,30.29,29.84,23,13,26,0.03
2012-3-28,69,57,41,54,44,36,93,68,31,30.04,29.80,29,10,32,0.01
2012-3-29,50,42,37,40,36,34,93,80,60,30.15,29.98,19,7,19,0.00
2012-3-30,61,47,38,54,43,36,92,86,73,29.99,29.70,24,9,25,0.16
2012-3-31,54,44,38,44,39,36,92,84,66,30.00,29.84,15,6,0,0.00
2012-4-1,70,52,44,63,48,41,96,88,70,29.83,29.65,21,9,24,0.14
2012-4-2,67,55,45,45,42,38,93,64,38,29.93,29.77,21,9,22,0.00
2012-4-3,80,57,46,62,46,40,82,68,48,29.95,29.78,29,9,32,0.00
2012-4-4,59,49,41,43,37,31,88,66,36,29.95,29.88,26,13,29,0.00
2012-4-5,53,44,37,39,35,31,87,71,48,30.16,29.89,25,11,28,0.00
2012-4-6,58,42,32,36,31,25,93,66,33,30.33,30.16,16,6,18,0.00
2012-4-7,66,50,29,47,33,27,95,60,23,30.34,30.14,19,4,21,0.01
2012-4-8,65,54,40,47,34,22,96,54,20,30.27,30.09,26,9,32,0.00
2012-4-9,63,52,38,39,28,19,87,46,20,30.09,29.92,34,10,34,0.00
2012-4-10,46,38,28,30,22,18,76,53,34,30.16,30.01,27,9,27,0.00
2012-4-11,50,38,26,31,24,18,78,58,35,30.30,30.15,19,6,22,0.00
2012-4-12,61,44,24,33,28,20,91,56,27,30.33,30.15,12,3,16,0.00
2012-4-13,64,53,38,39,32,28,71,47,26,30.22,30.05,20,7,23,0.00
2012-4-14,63,58,52,58,51,39,97,81,54,30.06,29.77,15,6,0,0.00
2012-4-15,74,67,58,64,60,57,97,79,68,29.78,29.62,27,15,34,0.35
2012-4-16,64,54,40,62,47,37,93,78,60,30.22,29.55,36,16,39,0.15
2012-4-17,60,47,37,42,37,33,94,71,40,30.39,30.22,12,3,0,0.00
2012-4-18,70,56,39,48,42,34,85,62,41,30.31,29.96,21,7,24,0.00
2012-4-19,77,60,45,53,46,40,90,63,30,29.99,29.71,23,8,26,0.00
2012-4-20,62,49,41,53,43,37,95,82,56,29.98,29.64,25,12,28,0.15
2012-4-21,50,43,37,38,34,25,89,71,42,30.06,29.96,19,9,21,0.00
2012-4-22,51,43,37,36,30,23,86,60,39,30.09,29.97,27,11,32,0.00
2012-4-23,57,44,32,31,26,18,84,51,26,30.06,29.81,26,9,27,0.00
2012-4-24,63,49,31,37,27,21,71,46,22,29.82,29.70,16,4,19,0.00
2012-4-25,70,57,42,56,45,34,85,66,39,29.77,29.59,17,5,19,0.00
2012-4-26,57,48,35,53,40,23,96,75,55,30.15,29.58,29,11,30,0.00
2012-4-27,56,42,26,32,26,17,94,58,22,30.31,30.11,17,6,17,0.00
2012-4-28,49,46,42,40,37,30,87,71,48,30.20,30.00,24,8,25,0.21
2012-4-29,61,50,39,51,42,32,93,73,51,30.26,30.03,22,8,23,0.15
2012-4-30,62,56,48,60,53,44,97,91,80,30.03,29.88,16,6,22,0.27
2012-5-1,63,58,51,61,55,49,98,92,84,30.04,29.80,16,5,17,0.23
2012-5-2,78,69,56,69,63,55,99,83,60,29.92,29.80,29,7,29,0.00
2012-5-3,86,75,64,71,66,61,93,75,54,29.93,29.82,25,10,29,0.00
2012-5-4,77,62,49,66,58,48,98,89,66,29.99,29.81,21,7,22,0.31
2012-5-5,71,59,49,65,57,49,99,92,77,30.04,29.91,18,6,18,0.00
2012-5-6,78,65,51,67,59,50,98,82,64,30.01,29.76,26,6,28,0.22
2012-5-7,63,59,54,62,58,53,99,96,92,29.88,29.75,18,5,19,1.62
2012-5-8,68,59,50,55,51,48,99,78,50,29.89,29.84,20,6,21,0.01
2012-5-9,58,52,42,52,47,40,94,82,72,29.96,29.85,18,6,18,0.02
2012-5-10,62,52,41,49,40,29,95,68,32,30.07,29.94,14,5,18,0.00
2012-5-11,76,60,40,50,43,36,88,58,29,30.15,30.06,17,5,18,0.00
2012-5-12,61,56,51,55,49,42,88,78,69,30.24,30.13,21,7,23,0.09
2012-5-13,66,57,49,52,44,31,85,63,30,30.22,30.11,20,9,21,0.00
2012-5-14,77,61,43,47,41,33,89,52,23,30.12,30.00,12,2,14,0.00
2012-5-15,82,68,50,58,46,39,83,49,23,30.00,29.82,19,6,21,0.09
2012-5-16,62,56,46,57,40,30,88,58,32,30.13,29.83,25,12,27,0.00
2012-5-17,74,60,42,44,39,34,83,50,24,30.18,30.04,16,3,16,0.00
2012-5-18,83,68,49,44,40,32,68,39,16,30.10,29.96,14,5,15,0.00
2012-5-19,90,75,56,62,54,43,73,50,29,30.05,29.95,15,4,17,0.00
2012-5-20,91,75,63,64,60,54,93,64,31,30.05,29.89,29,7,42,1.32
2012-5-21,65,58,52,63,51,43,94,77,55,30.15,29.99,23,10,27,0.02
2012-5-22,66,57,47,51,45,36,90,68,35,30.08,29.93,16,6,18,0.00
2012-5-23,80,63,43,54,46,34,94,59,24,29.94,29.76,14,3,15,0.00
2012-5-24,86,74,58,59,55,50,87,56,31,29.81,29.59,26,10,26,0.00
2012-5-25,76,71,64,62,55,47,75,58,43,30.07,29.70,16,8,18,0.00
2012-5-26,90,74,64,69,57,46,78,56,44,30.15,29.95,19,7,22,0.00
2012-5-27,95,82,67,68,61,54,84,53,28,29.99,29.82,17,6,20,0.00
2012-5-28,92,83,71,66,61,54,74,50,28,29.83,29.67,29,12,32,0.00
2012-5-29,83,74,60,62,50,40,80,46,25,29.84,29.70,24,7,28,0.00
2012-5-30,70,61,51,52,46,39,88,60,33,29.96,29.84,20,8,25,0.00
2012-5-31,56,52,50,50,47,43,95,82,68,30.01,29.81,22,11,27,0.60
2012-6-1,62,53,47,52,48,44,95,84,54,29.84,29.75,19,8,21,0.04
2012-6-2,71,60,46,56,51,44,93,74,47,29.81,29.75,24,8,28,0.00
2012-6-3,79,66,52,59,52,42,95,64,31,29.86,29.79,17,6,19,0.00
2012-6-4,74,65,56,58,52,44,83,64,37,29.91,29.78,18,7,24,0.00
2012-6-5,69,61,51,56,51,44,94,72,42,30.02,29.89,25,8,25,0.00
2012-6-6,73,63,50,55,50,43,96,66,38,30.09,30.01,16,5,19,0.00
2012-6-7,79,65,49,54,49,42,95,60,30,30.14,30.05,14,2,16,0.00
2012-6-8,85,70,53,56,50,47,82,52,29,30.09,29.91,16,3,16,0.00
2012-6-9,88,75,58,56,52,47,77,49,25,29.97,29.85,19,5,21,0.00
2012-6-10,90,77,62,63,58,53,81,54,32,29.97,29.86,19,6,22,0.00
2012-6-11,86,76,68,74,66,61,85,73,55,29.89,29.78,19,6,24,0.14
2012-6-12,76,68,54,65,51,42,83,57,35,30.12,29.83,18,7,18,0.00
2012-6-13,72,62,50,50,46,37,91,60,30,30.20,30.09,14,4,16,0.00
2012-6-14,84,70,51,53,48,43,85,50,24,30.15,30.01,14,4,17,0.00
2012-6-15,90,75,54,55,50,42,78,45,20,30.09,30.00,14,4,19,0.00
2012-6-16,91,74,63,74,63,52,97,70,46,30.05,29.89,30,6,32,1.69
2012-6-17,81,72,66,69,66,60,98,81,50,29.98,29.79,11,4,14,0.27
2012-6-18,88,78,66,75,69,63,93,75,54,29.84,29.68,27,9,30,0.00
2012-6-19,89,80,70,75,69,64,83,70,54,29.97,29.84,20,8,22,0.00
2012-6-20,88,79,69,71,66,63,84,66,45,30.03,29.87,21,8,23,0.00
2012-6-21,80,74,64,69,65,60,91,74,55,29.94,29.88,18,6,21,0.05
2012-6-22,80,70,58,62,58,53,91,67,41,30.01,29.93,9,2,12,0.00
2012-6-23,83,72,57,67,59,53,94,67,37,30.02,29.96,10,2,13,0.00
2012-6-24,88,77,66,69,63,59,94,65,41,29.99,29.88,14,3,12,0.00
2012-6-25,73,67,58,63,53,44,86,61,44,30.05,29.92,21,10,22,0.00
2012-6-26,79,66,51,60,54,49,97,67,39,30.09,29.93,8,1,0,0.00
2012-6-27,86,72,55,59,56,51,92,60,36,30.00,29.78,19,6,21,0.00
2012-6-28,95,82,69,80,68,56,73,62,54,29.82,29.74,20,7,23,0.00
2012-6-29,85,77,64,75,69,60,94,77,53,29.97,29.73,37,4,42,0.32
2012-6-30,83,75,66,74,69,63,97,84,68,29.91,29.78,24,4,28,0.15
2012-7-1,86,74,67,74,69,62,98,87,57,30.02,29.84,27,2,35,0.41
2012-7-2,91,80,68,79,74,67,98,83,60,29.99,29.88,9,2,12,0.00
2012-7-3,92,81,68,79,72,64,90,75,57,29.93,29.80,12,4,14,0.00
2012-7-4,95,84,73,80,75,71,94,76,50,29.88,29.82,14,4,15,0.00
2012-7-5,96,84,71,79,74,69,96,72,46,29.93,29.85,13,3,0,0.00
2012-7-6,97,86,75,81,76,72,93,76,51,29.95,29.87,13,3,12,0.00
2012-7-7,98,81,71,80,72,66,93,77,45,29.98,29.89,19,5,19,0.00
2012-7-8,80,73,64,72,64,54,96,74,42,30.06,29.94,20,7,20,0.22
2012-7-9,88,72,59,68,63,58,97,75,42,30.05,29.97,20,2,21,0.52
2012-7-10,80,71,64,67,62,56,95,75,48,30.09,30.02,12,4,0,0.00
2012-7-11,85,73,61,66,61,57,95,70,42,30.13,30.04,14,2,14,0.00
2012-7-12,88,76,64,71,60,54,85,61,37,30.09,30.00,12,3,14,0.00
2012-7-13,90,78,66,75,66,58,89,66,45,30.07,29.96,11,2,13,0.00
2012-7-14,88,74,66,72,68,64,95,81,51,30.06,29.96,14,2,18,0.02
2012-7-15,90,77,65,73,68,64,98,77,44,30.06,29.95,15,3,15,0.00
2012-7-16,93,82,69,73,70,67,95,72,45,30.01,29.83,16,3,18,0.00
2012-7-17,97,84,72,76,71,66,92,68,38,29.86,29.76,15,4,20,0.00
2012-7-18,96,82,72,78,74,68,96,78,45,29.93,29.79,27,2,30,0.02
2012-7-19,83,75,70,76,71,68,97,87,75,29.92,29.82,24,6,24,0.80
2012-7-20,78,72,62,70,65,60,96,82,55,30.06,29.90,15,5,16,0.02
2012-7-21,84,73,60,71,66,59,99,79,52,30.11,30.01,9,1,0,0.00
2012-7-22,87,77,65,76,69,63,96,77,57,30.11,30.00,11,2,0,0.00
2012-7-23,91,83,74,76,71,65,89,68,50,30.01,29.87,19,5,24,0.00
2012-7-24,81,75,69,75,70,66,94,85,69,29.98,29.84,36,3,39,0.32
2012-7-25,95,80,67,80,72,64,94,76,52,29.93,29.58,17,5,18,0.11
2012-7-26,84,77,66,75,70,64,93,80,62,29.77,29.57,17,6,21,0.05
2012-7-27,84,73,63,71,65,60,97,79,46,29.96,29.76,16,4,19,0.00
2012-7-28,80,71,60,66,62,58,96,75,48,30.11,29.96,15,4,16,0.00
2012-7-29,84,74,56,65,62,55,97,67,45,30.10,29.97,8,1,0,0.00
2012-7-30,90,78,66,70,65,58,86,66,47,29.98,29.85,9,2,0,0.00
2012-7-31,83,74,64,73,67,62,96,81,62,29.93,29.84,14,4,16,0.58
2012-8-1,87,73,60,72,65,59,99,78,50,29.96,29.84,7,1,0,0.00
2012-8-2,88,74,60,70,65,58,95,75,48,29.89,29.78,10,1,0,0.00
2012-8-3,92,78,61,73,67,60,98,74,43,29.88,29.81,10,1,0,0.00
2012-8-4,94,75,67,77,70,65,98,87,54,29.90,29.72,36,2,38,0.30
2012-8-5,82,73,59,70,64,58,98,77,46,30.14,29.87,17,4,19,0.01
2012-8-6,84,69,54,64,58,52,99,74,34,30.17,29.99,9,1,0,0.01
2012-8-7,92,74,55,70,61,53,97,68,35,29.99,29.87,12,3,14,0.00
2012-8-8,84,72,64,71,66,62,97,83,50,29.98,29.90,11,2,15,0.10
2012-8-9,78,68,62,68,64,61,97,87,65,29.92,29.78,18,3,20,0.02
2012-8-10,73,66,60,64,58,47,97,78,49,29.93,29.77,25,7,25,0.20
2012-8-11,75,64,52,58,54,49,95,73,49,30.01,29.92,14,5,19,0.00
2012-8-12,76,65,50,62,57,49,98,78,47,30.04,29.96,10,1,0,0.00
2012-8-13,65,62,60,63,61,58,97,94,88,29.98,29.92,9,2,0,0.80
2012-8-17,74,71,69,59,57,52,71,61,48,29.98,29.96,8,3,0,0.01
2012-8-19,56,54,54,54,53,52,96,95,93,29.94,29.93,0,0,0,0.04
2012-8-20,76,62,50,61,55,49,98,81,51,30.00,29.92,16,1,18,0.00
2012-8-21,76,62,48,61,53,47,99,77,42,30.10,30.00,10,1,0,0.00
2012-8-22,83,65,47,62,54,46,99,72,38,30.14,30.03,9,1,13,0.00
2012-8-23,88,72,56,65,59,54,91,68,35,30.11,30.01,15,2,15,0.00
2012-8-24,90,74,58,65,60,55,93,67,37,30.05,29.96,12,2,12,0.00
2012-8-25,91,75,58,67,61,54,95,65,29,30.06,29.98,12,2,14,0.00
2012-8-26,81,71,62,73,67,59,98,88,60,30.04,29.94,15,3,17,1.04
2012-8-27,83,72,59,73,65,57,99,82,44,30.06,29.93,12,3,0,0.07
2012-8-28,84,69,55,67,60,54,99,76,46,30.14,30.01,11,1,0,0.00
2012-8-29,82,69,56,68,61,56,99,78,49,30.09,29.99,7,1,0,0.00
2012-8-30,88,72,58,65,60,56,96,70,35,30.06,29.95,12,2,13,0.00
2012-8-31,89,75,60,74,68,57,95,79,56,30.07,29.99,16,3,17,0.00
2012-9-1,77,73,70,74,72,69,97,94,88,30.04,29.90,13,4,16,0.53
2012-9-2,82,76,72,76,72,70,97,91,78,29.90,29.81,17,6,19,0.20
2012-9-3,86,76,69,76,71,68,97,86,66,29.89,29.83,12,4,0,0.00
2012-9-4,89,77,68,75,70,67,98,83,52,29.88,29.80,8,1,0,0.00
2012-9-5,82,71,64,69,66,62,97,84,60,29.92,29.73,25,4,28,0.32
2012-9-6,84,73,60,68,63,56,98,75,39,29.92,29.81,11,2,12,0.00
2012-9-7,80,65,58,68,62,55,97,89,60,29.96,29.71,17,4,23,0.22
2012-9-8,71,61,53,56,52,47,94,74,45,29.90,29.79,15,5,17,0.12
2012-9-9,70,60,50,59,54,48,97,84,58,30.15,29.82,16,4,20,0.00
2012-9-10,75,60,44,57,50,43,98,74,42,30.24,30.10,9,1,0,0.00
2012-9-11,80,60,47,59,53,45,95,77,45,30.19,30.07,17,3,19,0.00
2012-9-12,85,68,51,61,56,49,96,69,34,30.18,30.09,15,3,17,0.00
2012-9-13,75,64,56,66,59,54,95,84,65,30.29,30.15,17,5,23,0.08
2012-9-14,73,61,51,56,51,40,97,74,32,30.35,30.27,11,2,13,0.08
2012-9-15,77,60,46,54,47,39,95,70,26,30.32,30.14,11,2,18,0.00
2012-9-16,77,61,46,56,49,44,95,70,33,30.14,29.98,12,2,16,0.00
2012-9-17,77,63,49,64,56,47,97,82,51,29.99,29.73,13,3,17,0.06
2012-9-18,62,53,40,55,42,32,93,71,34,30.05,29.75,21,6,23,0.00
2012-9-19,72,55,34,44,39,33,97,62,31,30.13,29.88,22,7,25,0.00
2012-9-20,61,54,46,49,44,40,80,70,53,29.94,29.86,21,4,24,0.00
2012-9-21,68,53,42,52,45,39,96,78,36,29.94,29.78,16,3,18,0.04
2012-9-22,58,49,42,49,42,35,97,78,49,30.18,29.80,27,6,27,0.10
2012-9-23,60,47,34,42,36,31,96,70,34,30.27,30.18,14,3,17,0.00
2012-9-24,70,51,31,41,34,29,95,58,23,30.25,29.95,20,5,21,0.00
2012-9-25,72,60,45,63,51,40,87,73,58,29.96,29.84,15,3,18,0.00
2012-9-26,69,62,56,63,56,46,98,81,61,30.15,29.89,17,6,16,0.00
2012-9-27,69,57,45,51,47,42,93,71,42,30.19,30.11,13,4,13,0.00
2012-9-28,66,55,42,55,49,40,95,82,62,30.15,30.09,19,5,22,0.00
2012-9-29,76,56,40,52,44,38,97,68,29,30.13,29.94,14,3,18,0.01
2012-9-30,66,55,47,53,47,43,96,77,45,29.98,29.91,16,5,18,0.01
2012-10-1,64,54,43,51,46,41,96,77,49,29.94,29.81,13,3,15,0.00
2012-10-2,62,58,54,56,52,47,89,82,72,29.89,29.78,8,2,0,0.00
2012-10-3,64,59,57,59,57,55,96,91,81,30.04,29.86,12,3,14,0.06
2012-10-4,80,62,51,61,54,48,96,80,46,30.13,29.99,24,8,27,0.19
2012-10-5,51,44,38,48,39,30,93,82,68,30.17,30.08,12,6,0,0.03
2012-10-6,49,40,31,33,30,27,85,68,48,30.20,30.09,16,6,17,0.01
2012-10-7,49,40,30,34,29,24,86,66,38,30.20,30.15,16,4,16,0.00
2012-10-8,58,42,27,34,29,24,89,64,35,30.22,30.06,19,6,24,0.00
2012-10-9,65,52,38,44,39,33,92,65,41,30.07,29.83,25,10,29,0.07
2012-10-10,50,41,31,41,33,26,95,75,41,30.21,29.94,24,7,27,0.09
2012-10-11,64,48,30,46,35,27,90,64,35,30.25,30.08,23,8,25,0.00
2012-10-12,48,46,43,40,38,35,76,72,68,30.39,30.25,15,7,18,0.00
2012-10-14,56,51,49,53,48,46,92,89,85,29.77,29.47,33,15,38,0.39
2012-10-15,58,48,40,46,41,38,92,78,49,29.98,29.77,17,6,17,0.00
2012-10-16,69,55,37,53,44,34,93,71,47,29.99,29.60,20,8,24,0.00
2012-10-17,68,60,54,57,53,49,95,80,63,29.62,29.31,26,10,28,0.80
2012-10-18,54,48,43,52,43,37,93,83,56,29.57,29.35,23,10,28,0.18
2012-10-19,50,46,43,45,43,41,96,91,79,29.67,29.45,12,6,0,0.10
2012-10-20,56,45,37,46,40,36,97,87,61,29.97,29.67,15,5,16,0.00
2012-10-21,69,51,33,52,44,32,97,80,53,30.07,29.97,15,3,17,0.01
2012-10-22,66,59,51,62,56,47,95,88,72,30.02,29.89,16,5,23,0.54
2012-10-23,66,61,59,63,59,56,97,92,86,29.95,29.88,17,4,18,0.60
2012-10-24,78,66,58,66,61,56,95,84,67,29.97,29.87,19,6,20,0.00
2012-10-25,78,66,45,64,59,43,93,78,62,29.94,29.71,27,12,31,0.21
2012-10-30,44,41,38,34,31,29,74,67,60,29.88,29.77,29,14,30,0.00
2012-10-31,46,40,33,35,30,27,81,69,58,29.87,29.77,18,7,19,0.00
2012-11-1,51,39,26,34,27,20,84,65,38,29.92,29.84,14,5,0,0.00
2012-11-2,48,38,31,35,31,28,91,78,56,30.17,29.91,12,4,17,0.00
2012-11-3,43,38,34,35,33,31,91,83,69,30.24,30.14,12,4,22,0.00
2012-11-4,38,36,34,36,34,32,93,91,90,30.22,30.21,5,0,0,0.00
2012-11-11,69,63,60,54,48,-100,78,68,59,30.12,29.78,34,18,38,0.00
2012-11-13,61,30,22,25,21,-100,88,74,52,30.55,29.86,12,2,4,0.00
2012-11-14,42,31,24,29,25,20,91,78,54,30.59,30.42,13,2,0,0.00
2012-11-15,46,32,21,33,26,19,95,81,53,30.44,30.36,7,1,0,0.00
2012-11-16,53,35,23,36,28,21,94,76,44,30.51,30.41,9,1,0,0.00
2012-11-17,54,38,23,36,30,21,94,75,44,30.59,30.48,9,1,0,0.01
2012-11-18,56,43,33,37,33,30,87,69,46,30.49,30.34,9,2,0,0.00
2012-11-19,57,46,34,41,37,31,89,73,53,30.35,30.14,11,3,0,0.00
2012-11-20,56,47,33,49,42,32,95,84,71,30.19,30.07,11,2,0,0.00
2012-11-21,58,42,31,50,39,29,97,91,73,30.28,30.15,10,2,0,0.01
2012-11-22,61,50,39,49,45,37,96,82,61,30.15,29.83,24,11,27,0.03
2012-11-23,44,31,26,39,24,18,88,74,63,30.24,29.89,32,14,32,0.00
2012-11-24,31,27,21,23,19,17,87,74,65,30.30,30.05,13,5,13,0.00
2012-11-25,42,34,25,28,26,22,89,74,55,30.09,29.91,14,5,16,0.00
2012-11-26,35,30,23,26,22,18,90,74,59,30.38,30.09,11,4,0,0.00
2012-11-27,34,24,15,20,15,10,84,68,42,30.47,30.32,12,3,0,0.00
2012-11-28,26,26,26,17,17,17,70,70,70,30.32,30.32,4,4,0,0.00
2012-12-3,70,65,60,62,54,-100,98,81,61,30.12,29.81,28,15,34,0.00
2012-12-4,62,49,36,58,42,31,94,77,51,30.27,29.89,15,5,17,0.22
2012-12-5,42,34,28,32,28,22,88,78,61,30.43,30.25,15,4,16,0.00
2012-12-6,43,37,30,39,33,27,89,86,79,30.25,29.94,12,5,15,0.00
2012-12-7,44,42,41,43,41,38,97,95,89,29.97,29.86,12,4,0,0.12
2012-12-8,42,39,35,40,37,32,96,91,82,30.11,29.84,17,7,16,0.06
2012-12-9,44,38,34,43,37,31,97,93,88,30.10,29.74,17,8,19,0.10
2012-12-10,38,30,28,36,28,26,95,92,84,29.98,29.74,20,9,20,0.00
2012-12-11,34,28,22,27,24,20,93,86,69,30.22,29.97,20,7,22,0.00
2012-12-12,44,30,21,31,25,19,92,82,57,30.37,30.22,15,5,17,0.00
2012-12-13,45,34,26,32,28,23,91,78,58,30.35,30.16,26,7,26,0.00
2012-12-14,48,33,23,36,28,21,94,82,58,30.25,30.15,9,3,0,0.00
2012-12-16,44,39,36,42,37,34,93,91,88,29.75,29.63,17,7,18,0.02
2012-12-17,39,37,33,35,34,31,93,89,84,29.76,29.66,11,2,0,0.00
2012-12-18,40,36,31,38,33,28,94,90,86,29.82,29.63,20,6,21,0.00
2012-12-19,40,37,33,37,34,31,93,90,87,30.08,29.76,18,6,23,0.09
2012-12-20,50,40,31,49,39,30,96,93,85,29.78,29.06,30,14,31,1.08
2012-12-21,31,26,17,30,23,14,96,85,79,30.21,29.44,32,16,35,0.00
2012-12-22,30,21,15,25,18,12,93,87,75,30.27,29.99,12,4,0,0.00
2012-12-23,36,27,14,32,24,12,95,89,83,30.04,29.95,8,2,0,0.00
2012-12-24,33,30,25,30,26,22,90,87,83,30.10,29.85,13,6,0,0.00
2012-12-25,33,30,27,27,24,22,92,81,71,30.33,30.10,17,7,20,0.00
2012-12-26,32,31,27,27,25,21,83,80,75,30.19,29.95,32,15,32,0.00
2012-12-27,32,29,27,28,26,23,93,87,78,30.21,30.07,16,4,0,0.00
2012-12-28,30,29,28,28,27,26,95,92,90,30.16,29.90,10,3,0,0.00
2012-12-29,30,26,19,29,24,16,95,90,83,30.27,29.88,18,9,23,0.00
2012-12-30,34,24,12,28,20,10,91,86,74,30.41,30.16,18,7,19,0.00
2012-12-31,35,29,24,30,25,20,92,84,73,30.16,30.04,21,9,22,0.00
2013-1-1,27,20,10,19,12,5,84,72,50,30.25,30.12,16,5,0,0.00